Time;durP1;ratioP1;P1;durP2;ratioP2;P2;SDS_P1;SDS_P2;PMS_P1;PMS_P2;Temp;Humidity;BMP_temperature;BMP_pressure;BME280_temperature;BME280_humidity;BME280_pressure;Samples;Min_cycle;Max_cycle;Signal;HPM_P1;HPM_P2
2024/03/12 00:02:15;;;;;;;;;;;;;;;20.55;36.08;100546.68;102471;1297;73468;-84
2024/03/12 00:04:41;;;;;;;;;;;;;;;20.56;36.08;100544.67;102485;1297;61339;-84
2024/03/12 00:07:06;;;;;;;;;;;;;;;20.55;36.12;100532.04;102553;1297;62110;-83
2024/03/12 00:09:34;;;;;;;;;;;;;;;20.55;36.06;100524.67;102485;1300;61390;-84
2024/03/12 00:12:00;;;;;;;;;;;;;;;20.56;35.97;100519.95;102554;1296;62173;-83
2024/03/12 00:14:26;;;;;;;;;;;;;;;20.56;36.11;100525.67;102601;1297;61312;-85
2024/03/12 00:16:51;;;;;;;;;;;;;;;20.56;36.24;100518.02;102555;1298;62294;-84
2024/03/12 00:19:22;;;;;;;;;;;;;;;20.56;36.13;100519.05;102502;1297;61488;-83
2024/03/12 00:21:52;;;;;;;;;;;;;;;20.57;35.99;100513.13;102549;1297;72520;-83
2024/03/12 00:24:18;;;;;;;;;;;;;;;20.57;36.11;100508.45;102455;1302;74639;-85
2024/03/12 00:26:44;;;;;;;;;;;;;;;20.57;36.08;100503.98;102546;1298;62174;-85
2024/03/12 00:29:09;;;;;;;;;;;;;;;20.56;36.00;100496.02;102737;1297;61424;-84
2024/03/12 00:31:35;;;;;;;;;;;;;;;20.57;36.06;100495.94;102573;1297;61503;-85
2024/03/12 00:34:02;;;;;;;;;;;;;;;20.57;35.98;100488.23;102916;1303;61416;-81
2024/03/12 00:36:28;;;;;;;;;;;;;;;20.57;35.96;100484.29;103368;1297;61492;-82
2024/03/12 00:38:54;;;;;;;;;;;;;;;20.58;36.01;100484.23;103234;1297;61388;-82
2024/03/12 00:41:21;;;;;;;;;;;;;;;20.58;35.97;100483.14;103342;1296;61495;-82
2024/03/12 00:43:52;;;;;;;;;;;;;;;20.58;35.99;100483.48;103502;1297;72390;-82
2024/03/12 00:46:17;;;;;;;;;;;;;;;20.59;35.99;100478.82;103306;1297;74504;-81
2024/03/12 00:48:43;;;;;;;;;;;;;;;20.59;35.90;100477.32;103295;1297;61407;-81
2024/03/12 00:51:08;;;;;;;;;;;;;;;20.60;35.99;100471.91;103190;1298;61332;-81
2024/03/12 00:53:34;;;;;;;;;;;;;;;20.61;36.04;100467.05;103137;1300;61321;-82
2024/03/12 00:56:01;;;;;;;;;;;;;;;20.62;35.96;100465.91;103126;1298;78475;-83
2024/03/12 00:58:27;;;;;;;;;;;;;;;20.62;35.97;100464.80;103187;1297;74518;-82
2024/03/12 01:00:52;;;;;;;;;;;;;;;20.62;36.00;100464.98;103157;1296;61430;-82
2024/03/12 01:03:18;;;;;;;;;;;;;;;20.63;35.93;100466.39;103230;1297;61434;-82
2024/03/12 01:05:44;;;;;;;;;;;;;;;20.63;35.97;100466.88;103439;1297;61418;-82
2024/03/12 01:08:11;;;;;;;;;;;;;;;20.63;35.90;100467.05;103185;1297;62215;-83
2024/03/12 01:10:39;;;;;;;;;;;;;;;20.64;35.88;100463.64;103222;1296;61759;-83
2024/03/12 01:13:11;;;;;;;;;;;;;;;20.64;35.91;100460.19;103211;1296;61290;-82
2024/03/12 01:15:36;;;;;;;;;;;;;;;20.65;35.81;100458.38;103129;1300;72262;-82
2024/03/12 01:18:03;;;;;;;;;;;;;;;20.65;35.89;100457.14;103137;1296;61318;-83
2024/03/12 01:20:28;;;;;;;;;;;;;;;20.65;35.87;100454.92;103258;1296;61882;-83
2024/03/12 01:22:54;;;;;;;;;;;;;;;20.65;35.87;100449.92;103228;1298;61355;-82
2024/03/12 01:25:22;;;;;;;;;;;;;;;20.65;35.92;100449.02;103221;1302;61536;-82
2024/03/12 01:27:48;;;;;;;;;;;;;;;20.66;35.84;100445.59;103249;1296;59329;-82
2024/03/12 01:30:14;;;;;;;;;;;;;;;20.65;35.79;100441.14;103225;1296;61432;-82
2024/03/12 01:32:40;;;;;;;;;;;;;;;20.66;35.83;100437.52;103228;1297;61475;-82
2024/03/12 01:35:08;;;;;;;;;;;;;;;20.67;35.80;100431.59;103083;1296;61321;-83
2024/03/12 01:37:41;;;;;;;;;;;;;;;20.67;35.82;100430.15;103248;1298;61277;-82
2024/03/12 01:40:21;;;;;;;;;;;;;;;20.67;35.79;100429.41;103216;1298;61952;-82
2024/03/12 01:42:57;;;;;;;;;;;;;;;20.67;35.68;100429.60;103174;1298;61358;-82
2024/03/12 01:45:24;;;;;;;;;;;;;;;20.67;35.77;100425.84;103208;1298;72463;-82
2024/03/12 01:47:49;;;;;;;;;;;;;;;20.67;35.81;100422.42;103173;1298;74340;-82
2024/03/12 01:50:17;;;;;;;;;;;;;;;20.67;35.80;100425.11;103199;1296;61325;-82
2024/03/12 01:52:43;;;;;;;;;;;;;;;20.67;35.92;100422.58;103344;1299;62364;-82
2024/03/12 01:55:10;;;;;;;;;;;;;;;20.67;35.72;100421.86;103256;1298;61335;-82
2024/03/12 01:57:47;;;;;;;;;;;;;;;20.67;35.79;100421.69;103366;1297;61566;-82
2024/03/12 02:00:13;;;;;;;;;;;;;;;20.68;35.68;100414.51;103065;1300;61295;-81
2024/03/12 02:02:42;;;;;;;;;;;;;;;20.68;35.81;100412.88;103251;1297;61388;-81
2024/03/12 02:05:10;;;;;;;;;;;;;;;20.68;35.68;100406.30;103276;1301;72233;-82
2024/03/12 02:07:45;;;;;;;;;;;;;;;20.68;35.72;100406.08;103242;1297;74441;-83
2024/03/12 02:10:13;;;;;;;;;;;;;;;20.68;35.70;100403.04;102550;1298;801391;-82
2024/03/12 02:13:02;;;;;;;;;;;;;;;20.69;35.71;100403.20;103191;1297;61421;-82
2024/03/12 02:15:28;;;;;;;;;;;;;;;20.68;35.82;100399.46;102973;1298;70345;-82
2024/03/12 02:17:53;;;;;;;;;;;;;;;20.69;35.63;100397.08;103004;1297;61433;-83
2024/03/12 02:20:21;;;;;;;;;;;;;;;20.69;35.68;100394.80;103065;1300;61403;-83
2024/03/12 02:22:53;;;;;;;;;;;;;;;20.69;35.59;100396.22;103343;1296;61337;-83
2024/03/12 02:25:22;;;;;;;;;;;;;;;20.69;35.58;100391.91;103082;1300;72595;-83
2024/03/12 02:27:48;;;;;;;;;;;;;;;20.69;35.68;100390.49;103091;1302;61427;-83
2024/03/12 02:30:14;;;;;;;;;;;;;;;20.68;35.55;100382.46;103073;1298;61397;-84
2024/03/12 02:32:40;;;;;;;;;;;;;;;20.69;35.67;100384.77;103350;1300;61430;-84
2024/03/12 02:35:10;;;;;;;;;;;;;;;20.69;35.71;100383.36;103276;1298;61432;-84
2024/03/12 02:37:35;;;;;;;;;;;;;;;20.68;35.69;100383.54;103169;1296;74421;-84
2024/03/12 02:40:01;;;;;;;;;;;;;;;20.69;35.58;100377.63;103226;1301;61946;-83
2024/03/12 02:42:28;;;;;;;;;;;;;;;20.69;35.51;100374.58;103264;1297;61312;-83
2024/03/12 02:44:55;;;;;;;;;;;;;;;20.68;35.54;100376.02;103084;1303;61394;-82
2024/03/12 02:47:21;;;;;;;;;;;;;;;20.69;35.71;100372.58;103001;1303;61633;-82
2024/03/12 02:49:47;;;;;;;;;;;;;;;20.68;35.51;100375.14;103088;1301;61385;-83
2024/03/12 02:52:13;;;;;;;;;;;;;;;20.69;35.57;100377.94;103071;1298;61408;-83
2024/03/12 02:54:38;;;;;;;;;;;;;;;20.69;35.57;100379.04;102934;1298;61490;-83
2024/03/12 02:57:04;;;;;;;;;;;;;;;20.69;35.57;100375.27;103076;1301;61519;-83
2024/03/12 02:59:30;;;;;;;;;;;;;;;20.69;35.51;100372.60;103095;1298;61569;-84
2024/03/12 03:01:56;;;;;;;;;;;;;;;20.68;35.65;100368.33;103028;1299;61421;-83
2024/03/12 03:04:24;;;;;;;;;;;;;;;20.68;35.50;100371.20;103194;1298;61489;-84
2024/03/12 03:06:53;;;;;;;;;;;;;;;20.69;35.57;100372.25;102966;1298;72686;-83
2024/03/12 03:09:20;;;;;;;;;;;;;;;20.69;35.58;100373.81;103122;1297;74204;-83
2024/03/12 03:11:47;;;;;;;;;;;;;;;20.69;35.62;100368.82;103090;1297;61927;-84
2024/03/12 03:14:12;;;;;;;;;;;;;;;20.69;35.65;100369.89;103271;1298;62019;-84
2024/03/12 03:16:38;;;;;;;;;;;;;;;20.70;35.51;100368.77;103196;1300;61390;-84
2024/03/12 03:19:05;;;;;;;;;;;;;;;20.70;35.48;100368.98;103213;1300;61396;-84
2024/03/12 03:21:30;;;;;;;;;;;;;;;20.70;35.60;100362.54;103417;1297;61475;-82
2024/03/12 03:23:57;;;;;;;;;;;;;;;20.70;35.47;100359.30;103170;1301;61458;-83
2024/03/12 03:26:23;;;;;;;;;;;;;;;20.70;35.61;100358.95;103411;1301;61411;-83
2024/03/12 03:28:48;;;;;;;;;;;;;;;20.70;35.55;100360.52;103359;1298;61357;-83
2024/03/12 03:31:14;;;;;;;;;;;;;;;20.70;35.61;100362.86;103374;1300;74328;-83
2024/03/12 03:33:45;;;;;;;;;;;;;;;20.70;35.63;100362.11;103208;1297;61468;-83
2024/03/12 03:36:13;;;;;;;;;;;;;;;20.71;35.53;100361.36;103101;1300;61403;-83
2024/03/12 03:38:40;;;;;;;;;;;;;;;20.71;35.69;100357.42;103190;1296;72504;-84
2024/03/12 03:41:09;;;;;;;;;;;;;;;20.71;35.60;100352.97;103165;1296;74510;-84
2024/03/12 03:43:36;;;;;;;;;;;;;;;20.71;35.54;100356.16;103332;1301;61451;-84
2024/03/12 03:46:03;;;;;;;;;;;;;;;20.71;35.47;100351.85;103268;1299;61312;-84
2024/03/12 03:48:29;;;;;;;;;;;;;;;20.72;35.63;100350.58;103216;1300;61938;-84
2024/03/12 03:50:55;;;;;;;;;;;;;;;20.72;35.50;100348.08;103213;1299;61453;-84
2024/03/12 03:53:21;;;;;;;;;;;;;;;20.72;35.57;100349.86;103205;1296;61446;-84
2024/03/12 03:55:46;;;;;;;;;;;;;;;20.71;35.39;100345.59;103400;1297;61472;-84
2024/03/12 03:58:12;;;;;;;;;;;;;;;20.72;35.40;100340.53;103237;1296;61398;-84
2024/03/12 04:00:37;;;;;;;;;;;;;;;20.72;35.42;100336.79;103102;1297;61496;-84
2024/03/12 04:03:04;;;;;;;;;;;;;;;20.72;35.47;100332.64;103032;1305;73378;-84
2024/03/12 04:05:32;;;;;;;;;;;;;;;20.72;35.48;100335.86;103238;1300;61289;-85
2024/03/12 04:07:59;;;;;;;;;;;;;;;20.72;35.45;100341.96;103291;1298;61298;-83
2024/03/12 04:10:24;;;;;;;;;;;;;;;20.72;35.63;100339.98;103297;1296;61472;-83
2024/03/12 04:12:51;;;;;;;;;;;;;;;20.72;35.53;100335.84;103281;1300;61427;-83
2024/03/12 04:15:16;;;;;;;;;;;;;;;20.72;35.50;100335.50;103534;1296;61681;-83
2024/03/12 04:17:43;;;;;;;;;;;;;;;20.72;35.51;100330.31;103221;1295;61344;-83
2024/03/12 04:20:09;;;;;;;;;;;;;;;20.73;35.60;100334.77;103278;1302;61386;-82
2024/03/12 04:22:40;;;;;;;;;;;;;;;20.73;35.53;100332.77;103130;1301;74499;-83
2024/03/12 04:25:06;;;;;;;;;;;;;;;20.73;35.60;100330.08;103186;1298;61476;-84
2024/03/12 04:27:32;;;;;;;;;;;;;;;20.73;35.70;100333.98;103205;1300;61339;-84
2024/03/12 04:29:58;;;;;;;;;;;;;;;20.73;35.40;100332.90;103281;1301;61467;-83
2024/03/12 04:32:27;;;;;;;;;;;;;;;20.73;35.38;100335.77;103290;1300;61187;-84
2024/03/12 04:34:54;;;;;;;;;;;;;;;20.74;35.53;100333.09;103796;1298;61367;-84
2024/03/12 04:37:19;;;;;;;;;;;;;;;20.73;35.59;100327.92;104228;1299;61426;-83
2024/03/12 04:39:45;;;;;;;;;;;;;;;20.73;35.69;100326.10;104185;1295;61282;-84
2024/03/12 04:42:10;;;;;;;;;;;;;;;20.74;35.54;100331.44;104229;1297;61356;-83
2024/03/12 04:44:36;;;;;;;;;;;;;;;20.75;35.61;100329.75;104417;1296;61391;-83
2024/03/12 04:47:02;;;;;;;;;;;;;;;20.76;35.78;100330.77;104234;1300;61379;-83
2024/03/12 04:49:27;;;;;;;;;;;;;;;20.77;35.63;100328.34;104363;1296;61382;-83
2024/03/12 04:51:53;;;;;;;;;;;;;;;20.78;35.66;100328.81;104219;1301;59275;-83
2024/03/12 04:54:18;;;;;;;;;;;;;;;20.80;35.71;100326.87;104313;1296;61405;-83
2024/03/12 04:56:45;;;;;;;;;;;;;;;20.81;35.75;100322.86;104236;1296;61385;-83
2024/03/12 04:59:11;;;;;;;;;;;;;;;20.83;35.81;100324.49;104146;1297;61427;-83
2024/03/12 05:01:37;;;;;;;;;;;;;;;20.83;35.74;100322.69;104565;1295;59218;-83
2024/03/12 05:04:02;;;;;;;;;;;;;;;20.84;35.73;100325.33;104273;1296;61394;-83
2024/03/12 05:06:28;;;;;;;;;;;;;;;20.85;35.86;100319.52;104154;1301;74670;-83
2024/03/12 05:08:55;;;;;;;;;;;;;;;20.85;35.78;100314.14;104176;1296;61776;-83
2024/03/12 05:11:21;;;;;;;;;;;;;;;20.86;35.82;100311.60;104144;1296;62434;-84
2024/03/12 05:13:47;;;;;;;;;;;;;;;20.86;35.86;100311.18;104121;1296;61154;-83
2024/03/12 05:16:13;;;;;;;;;;;;;;;20.87;35.81;100307.58;104103;1297;61081;-83
2024/03/12 05:18:38;;;;;;;;;;;;;;;20.86;35.81;100307.07;104117;1297;61443;-83
2024/03/12 05:21:04;;;;;;;;;;;;;;;20.87;35.91;100306.65;104135;1295;61353;-83
2024/03/12 05:23:30;;;;;;;;;;;;;;;20.87;35.78;100304.55;104274;1298;61403;-81
2024/03/12 05:25:56;;;;;;;;;;;;;;;20.87;35.86;100299.71;104003;1296;72539;-83
2024/03/12 05:28:23;;;;;;;;;;;;;;;20.86;35.67;100296.55;104040;1297;61282;-83
2024/03/12 05:30:49;;;;;;;;;;;;;;;20.86;35.78;100298.69;103696;1295;61370;-83
2024/03/12 05:33:15;;;;;;;;;;;;;;;20.85;35.69;100296.05;103891;1296;61454;-83
2024/03/12 05:35:47;;;;;;;;;;;;;;;20.86;35.81;100295.30;103305;1296;61230;-82
2024/03/12 05:38:30;;;;;;;;;;;;;;;20.85;35.85;100299.11;103731;1298;74467;-83
2024/03/12 05:49:06;;;;;;;;;;;;;;;20.74;35.84;100303.55;103381;1297;74339;-84
2024/03/12 05:51:32;;;;;;;;;;;;;;;20.71;35.85;100306.48;103957;1297;61341;-82
2024/03/12 05:54:01;;;;;;;;;;;;;;;20.67;35.89;100308.02;104238;1297;61263;-83
2024/03/12 05:56:26;;;;;;;;;;;;;;;20.60;35.78;100306.73;104294;1298;62047;-82
2024/03/12 05:58:52;;;;;;;;;;;;;;;20.54;35.92;100307.92;104648;1297;61408;-82
2024/03/12 06:01:17;;;;;;;;;;;;;;;20.46;36.01;100309.58;103905;1297;61420;-83
2024/03/12 06:03:43;;;;;;;;;;;;;;;20.41;35.96;100310.65;104376;1297;61494;-79
2024/03/12 06:06:09;;;;;;;;;;;;;;;20.39;36.02;100306.39;104214;1300;60207;-82
2024/03/12 06:08:35;;;;;;;;;;;;;;;20.36;36.10;100307.64;103996;1297;61410;-80
2024/03/12 06:11:00;;;;;;;;;;;;;;;20.36;36.09;100305.02;104254;1300;59385;-80
2024/03/12 06:13:27;;;;;;;;;;;;;;;20.35;36.24;100306.87;104404;1297;61281;-80
2024/03/12 06:15:53;;;;;;;;;;;;;;;20.35;36.25;100305.96;104175;1301;59516;-81
2024/03/12 06:18:18;;;;;;;;;;;;;;;20.35;36.13;100309.39;104310;1297;61556;-80
2024/03/12 06:20:47;;;;;;;;;;;;;;;20.35;36.21;100312.01;104328;1298;61783;-80
2024/03/12 06:23:13;;;;;;;;;;;;;;;20.36;36.33;100305.17;103780;1302;74533;-80
2024/03/12 06:25:39;;;;;;;;;;;;;;;20.37;36.30;100306.33;103519;1298;61269;-80
2024/03/12 06:28:07;;;;;;;;;;;;;;;20.38;36.20;100309.67;103669;1297;61379;-81
2024/03/12 06:30:35;;;;;;;;;;;;;;;20.37;36.23;100306.51;104179;1296;72490;-80
2024/03/12 06:33:17;;;;;;;;;;;;;;;20.36;36.14;100299.60;104329;1297;73296;-82
2024/03/12 06:35:53;;;;;;;;;;;;;;;20.35;36.19;100298.48;104995;1299;61278;-81
2024/03/12 06:38:20;;;;;;;;;;;;;;;20.33;36.18;100299.52;104490;1302;61319;-81
2024/03/12 06:40:47;;;;;;;;;;;;;;;20.29;36.32;100297.52;104159;1299;61314;-81
2024/03/12 06:43:14;;;;;;;;;;;;;;;20.27;36.21;100299.41;103868;1297;61210;-82
2024/03/12 06:45:46;;;;;;;;;;;;;;;20.26;36.26;100297.48;103521;1299;61377;-80
2024/03/12 06:48:13;;;;;;;;;;;;;;;20.26;36.14;100293.80;103370;1299;61398;-80
2024/03/12 06:50:39;;;;;;;;;;;;;;;20.26;36.25;100284.10;103387;1301;61424;-83
2024/03/12 06:53:05;;;;;;;;;;;;;;;20.28;36.35;100280.04;103645;1303;74363;-83
2024/03/12 06:55:32;;;;;;;;;;;;;;;20.31;36.15;100282.33;104242;1297;61698;-81
2024/03/12 06:58:04;;;;;;;;;;;;;;;20.32;36.40;100285.84;104000;1295;61389;-82
2024/03/12 07:00:36;;;;;;;;;;;;;;;20.33;36.24;100289.89;103950;1297;72094;-82
2024/03/12 07:03:05;;;;;;;;;;;;;;;20.34;36.58;100287.08;103475;1296;74483;-80
2024/03/12 07:05:33;;;;;;;;;;;;;;;20.37;36.74;100283.80;103847;1296;61430;-82
2024/03/12 07:08:00;;;;;;;;;;;;;;;20.40;36.71;100287.89;104535;1299;60073;-81
2024/03/12 07:10:26;;;;;;;;;;;;;;;20.41;36.64;100282.98;104431;1296;61402;-81
2024/03/12 07:12:52;;;;;;;;;;;;;;;20.42;36.72;100287.56;104630;1296;59502;-80
2024/03/12 07:15:19;;;;;;;;;;;;;;;20.44;36.88;100282.92;103437;1302;59388;-82
2024/03/12 07:17:45;;;;;;;;;;;;;;;20.46;36.98;100280.11;103304;1298;61256;-80
2024/03/12 07:20:14;;;;;;;;;;;;;;;20.49;36.90;100279.73;103264;1305;61414;-82
2024/03/12 07:22:43;;;;;;;;;;;;;;;20.51;37.08;100278.67;103338;1296;75208;-84
2024/03/12 07:25:12;;;;;;;;;;;;;;;20.52;36.92;100280.66;103174;1298;61344;-82
2024/03/12 07:27:38;;;;;;;;;;;;;;;20.54;36.87;100278.21;103817;1298;61309;-82
2024/03/12 07:30:10;;;;;;;;;;;;;;;20.56;36.90;100277.35;103846;1297;72503;-80
2024/03/12 07:32:37;;;;;;;;;;;;;;;20.55;36.85;100270.30;103686;1297;74478;-81
2024/03/12 07:35:03;;;;;;;;;;;;;;;20.54;36.92;100266.60;104144;1297;59424;-82
2024/03/12 07:37:29;;;;;;;;;;;;;;;20.54;36.79;100263.97;104208;1299;61143;-79
2024/03/12 07:39:56;;;;;;;;;;;;;;;20.53;36.73;100255.73;103949;1302;61350;-82
2024/03/12 07:42:23;;;;;;;;;;;;;;;20.55;36.98;100251.21;104105;1302;61356;-83
2024/03/12 07:44:48;;;;;;;;;;;;;;;20.56;36.88;100249.69;103955;1302;61479;-83
2024/03/12 07:47:17;;;;;;;;;;;;;;;20.56;37.02;100249.77;103701;1300;61395;-80
2024/03/12 07:49:43;;;;;;;;;;;;;;;20.57;37.07;100254.55;103839;1301;72540;-83
2024/03/12 07:52:10;;;;;;;;;;;;;;;20.55;37.00;100254.73;103889;1305;61328;-82
2024/03/12 07:54:35;;;;;;;;;;;;;;;20.51;37.09;100251.84;103842;1300;59668;-80
2024/03/12 07:57:01;;;;;;;;;;;;;;;20.49;37.15;100254.70;103383;1302;62316;-80
2024/03/12 07:59:29;;;;;;;;;;;;;;;20.49;37.31;100255.21;103292;1302;61310;-82
2024/03/12 08:01:57;;;;;;;;;;;;;;;20.50;37.56;100252.06;103578;1299;61276;-81
2024/03/12 08:04:26;;;;;;;;;;;;;;;20.52;37.47;100248.92;103485;1303;61421;-80
2024/03/12 08:06:54;;;;;;;;;;;;;;;20.54;37.62;100249.66;103351;1301;61516;-81
2024/03/12 08:09:20;;;;;;;;;;;;;;;20.57;37.70;100245.61;103763;1296;72355;-81
2024/03/12 08:11:49;;;;;;;;;;;;;;;20.60;37.95;100245.21;103565;1300;59388;-80
2024/03/12 08:14:15;;;;;;;;;;;;;;;20.63;37.89;100248.04;103359;1295;61361;-80
2024/03/12 08:16:41;;;;;;;;;;;;;;;20.65;37.92;100250.92;103284;1297;61381;-81
2024/03/12 08:19:07;;;;;;;;;;;;;;;20.67;37.93;100249.52;103282;1298;61282;-80
2024/03/12 08:21:33;;;;;;;;;;;;;;;20.68;37.98;100247.50;103461;1297;61392;-81
2024/03/12 08:23:59;;;;;;;;;;;;;;;20.69;38.02;100243.33;103553;1296;61768;-80
2024/03/12 08:26:27;;;;;;;;;;;;;;;20.70;37.95;100236.77;103739;1300;61189;-81
2024/03/12 08:28:55;;;;;;;;;;;;;;;20.72;38.00;100232.73;103388;1297;61347;-82
2024/03/12 08:31:22;;;;;;;;;;;;;;;20.73;38.19;100236.06;103470;1297;74529;-81
2024/03/12 08:33:48;;;;;;;;;;;;;;;20.73;38.13;100234.04;103339;1298;61349;-80
2024/03/12 08:36:14;;;;;;;;;;;;;;;20.74;38.04;100236.98;103460;1296;61433;-82
2024/03/12 08:38:40;;;;;;;;;;;;;;;20.75;38.18;100235.84;103403;1300;62038;-80
2024/03/12 08:41:08;;;;;;;;;;;;;;;20.76;38.08;100235.58;103475;1297;61426;-80
2024/03/12 08:43:36;;;;;;;;;;;;;;;20.77;38.15;100228.02;103508;1296;61173;-81
2024/03/12 08:46:02;;;;;;;;;;;;;;;20.78;38.30;100230.42;103784;1298;61169;-80
2024/03/12 08:48:28;;;;;;;;;;;;;;;20.80;38.23;100230.16;103598;1300;72474;-80
2024/03/12 08:50:56;;;;;;;;;;;;;;;20.81;38.30;100226.48;103701;1300;61362;-81
2024/03/12 08:53:21;;;;;;;;;;;;;;;20.83;38.33;100220.27;103940;1296;61627;-80
2024/03/12 08:55:47;;;;;;;;;;;;;;;20.85;38.51;100217.23;103853;1296;61440;-81
2024/03/12 08:58:13;;;;;;;;;;;;;;;20.85;38.52;100213.08;104625;1296;61373;-80
2024/03/12 09:00:43;;;;;;;;;;;;;;;20.84;38.77;100208.46;103620;1298;61344;-80
2024/03/12 09:03:09;;;;;;;;;;;;;;;20.85;38.95;100203.63;103753;1296;60113;-81
2024/03/12 09:05:35;;;;;;;;;;;;;;;20.86;38.94;100204.45;103702;1297;61502;-80
2024/03/12 09:08:04;;;;;;;;;;;;;;;20.87;38.99;100200.06;103396;1296;61332;-82
2024/03/12 09:10:41;;;;;;;;;;;;;;;20.88;39.11;100199.80;103647;1296;74014;-82
2024/03/12 09:13:07;;;;;;;;;;;;;;;20.90;39.39;100196.81;103727;1297;61397;-81
2024/03/12 09:15:34;;;;;;;;;;;;;;;20.90;39.20;100193.46;103386;1295;61898;-82
2024/03/12 09:18:06;;;;;;;;;;;;;;;20.91;39.15;100186.87;103438;1303;61416;-83
2024/03/12 09:20:32;;;;;;;;;;;;;;;20.92;39.21;100181.77;103618;1301;74336;-82
2024/03/12 09:22:57;;;;;;;;;;;;;;;20.92;39.30;100181.60;103645;1297;61448;-82
2024/03/12 09:25:23;;;;;;;;;;;;;;;20.93;39.29;100182.25;103683;1297;61270;-81
2024/03/12 09:27:50;;;;;;;;;;;;;;;20.93;39.52;100184.04;103758;1300;61417;-82
2024/03/12 09:30:16;;;;;;;;;;;;;;;20.93;39.42;100189.38;103658;1297;61415;-81
2024/03/12 09:32:44;;;;;;;;;;;;;;;20.94;39.51;100186.64;103796;1297;61333;-82
2024/03/12 09:35:09;;;;;;;;;;;;;;;20.94;39.52;100193.77;103716;1298;61427;-81
2024/03/12 09:37:36;;;;;;;;;;;;;;;20.94;39.56;100193.39;103761;1298;61357;-81
2024/03/12 09:40:05;;;;;;;;;;;;;;;20.94;39.62;100196.45;103507;1297;61289;-80
2024/03/12 09:42:31;;;;;;;;;;;;;;;20.92;39.56;100196.57;103742;1303;61365;-82
2024/03/12 09:44:56;;;;;;;;;;;;;;;20.89;39.54;100198.30;103958;1296;61338;-82
2024/03/12 09:47:22;;;;;;;;;;;;;;;20.82;39.60;100193.67;104435;1300;59188;-81
2024/03/12 09:49:48;;;;;;;;;;;;;;;20.75;39.68;100188.09;104082;1296;59384;-81
2024/03/12 09:52:16;;;;;;;;;;;;;;;20.69;39.73;100189.48;104045;1297;61428;-84
2024/03/12 09:54:42;;;;;;;;;;;;;;;20.65;39.73;100192.67;104230;1296;60648;-82
2024/03/12 09:57:10;;;;;;;;;;;;;;;20.58;39.98;100190.29;104101;1296;61144;-82
2024/03/12 09:59:36;;;;;;;;;;;;;;;20.57;40.25;100189.55;104689;1298;61148;-81
2024/03/12 10:02:03;;;;;;;;;;;;;;;20.53;40.50;100188.77;104070;1303;61489;-78
2024/03/12 10:04:29;;;;;;;;;;;;;;;20.48;40.64;100189.17;104187;1296;59938;-81
2024/03/12 10:07:00;;;;;;;;;;;;;;;20.45;40.83;100188.34;104053;1296;62066;-80
2024/03/12 10:09:37;;;;;;;;;;;;;;;20.43;40.90;100184.85;104346;1295;74533;-80
2024/03/12 10:12:05;;;;;;;;;;;;;;;20.46;41.23;100181.84;104343;1296;60656;-80
2024/03/12 10:14:33;;;;;;;;;;;;;;;20.47;41.49;100181.88;104109;1299;61408;-82
2024/03/12 10:17:14;;;;;;;;;;;;;;;20.49;41.39;100183.38;103870;1297;72675;-82
2024/03/12 10:19:44;;;;;;;;;;;;;;;20.49;41.52;100181.35;103787;1296;74488;-80
2024/03/12 10:22:10;;;;;;;;;;;;;;;20.50;41.59;100179.52;103638;1297;61385;-80
2024/03/12 10:24:37;;;;;;;;;;;;;;;20.51;41.60;100180.18;103678;1297;59872;-80
2024/03/12 10:27:02;;;;;;;;;;;;;;;20.53;41.53;100176.79;103914;1297;61985;-81
2024/03/12 10:29:32;;;;;;;;;;;;;;;20.56;41.51;100175.48;104011;1300;61266;-82
2024/03/12 10:31:58;;;;;;;;;;;;;;;20.56;41.57;100172.21;103890;1296;61365;-82
2024/03/12 10:34:24;;;;;;;;;;;;;;;20.56;41.33;100178.14;103842;1297;61464;-82
2024/03/12 10:36:50;;;;;;;;;;;;;;;20.50;41.52;100176.82;103680;1298;61391;-80
2024/03/12 10:39:28;;;;;;;;;;;;;;;20.46;41.58;100173.72;103667;1300;61678;-80
2024/03/12 10:41:58;;;;;;;;;;;;;;;20.47;41.47;100171.91;105583;1296;60117;-81
2024/03/12 10:44:26;;;;;;;;;;;;;;;20.49;41.43;100172.84;105655;1295;60101;-80
2024/03/12 10:46:52;;;;;;;;;;;;;;;20.50;41.35;100173.42;105627;1296;58763;-81
2024/03/12 10:49:17;;;;;;;;;;;;;;;20.51;41.47;100175.14;105700;1297;59854;-81
2024/03/12 10:51:44;;;;;;;;;;;;;;;20.51;41.28;100175.86;105780;1295;59384;-81
2024/03/12 10:54:21;;;;;;;;;;;;;;;20.48;41.39;100173.09;105554;1296;58949;-80
2024/03/12 10:56:51;;;;;;;;;;;;;;;20.46;41.44;100173.80;105736;1296;73036;-79
2024/03/12 10:59:16;;;;;;;;;;;;;;;20.47;41.55;100173.15;105517;1297;74385;-80
2024/03/12 11:01:42;;;;;;;;;;;;;;;20.49;41.36;100171.41;105624;1296;59775;-81
2024/03/12 11:04:09;;;;;;;;;;;;;;;20.49;41.56;100169.81;105476;1296;59839;-82
2024/03/12 11:06:38;;;;;;;;;;;;;;;20.45;41.83;100167.41;105410;1296;59286;-81
2024/03/12 11:09:05;;;;;;;;;;;;;;;20.36;41.69;100168.63;105623;1295;74473;-80
2024/03/12 11:11:31;;;;;;;;;;;;;;;20.33;41.98;100170.13;105544;1295;58952;-80
2024/03/12 11:13:59;;;;;;;;;;;;;;;20.30;42.25;100170.02;105619;1295;59162;-80
2024/03/12 11:16:25;;;;;;;;;;;;;;;20.29;42.43;100172.95;105444;1296;72540;-81
2024/03/12 11:18:51;;;;;;;;;;;;;;;20.26;42.22;100171.92;105564;1300;59576;-81
2024/03/12 11:21:23;;;;;;;;;;;;;;;20.24;42.39;100171.86;104394;1298;59382;-80
2024/03/12 11:23:53;;;;;;;;;;;;;;;20.25;42.61;100166.73;104062;1297;61789;-81
2024/03/12 11:26:19;;;;;;;;;;;;;;;20.30;42.51;100167.67;104152;1299;72800;-80
2024/03/12 11:28:48;;;;;;;;;;;;;;;20.35;42.52;100170.15;103717;1297;61260;-80
2024/03/12 11:31:14;;;;;;;;;;;;;;;20.38;42.51;100167.17;103450;1297;61343;-80
2024/03/12 11:33:49;;;;;;;;;;;;;;;20.41;42.51;100165.54;103784;1297;61504;-82
2024/03/12 11:36:24;;;;;;;;;;;;;;;20.44;42.28;100173.35;103960;1296;72569;-81
2024/03/12 11:38:51;;;;;;;;;;;;;;;20.45;42.23;100169.01;103893;1296;74399;-81
2024/03/12 11:41:18;;;;;;;;;;;;;;;20.46;42.12;100170.58;104786;1297;61422;-83
2024/03/12 11:43:43;;;;;;;;;;;;;;;20.46;42.29;100171.99;103461;1300;61292;-82
2024/03/12 11:46:09;;;;;;;;;;;;;;;20.45;42.06;100172.26;103242;1303;61438;-82
2024/03/12 11:48:36;;;;;;;;;;;;;;;20.43;42.00;100169.67;103727;1303;60969;-82
2024/03/12 11:51:03;;;;;;;;;;;;;;;20.40;42.08;100163.29;103427;1300;61428;-83
2024/03/12 11:53:36;;;;;;;;;;;;;;;20.38;42.01;100164.88;104108;1299;61311;-83
2024/03/12 11:56:10;;;;;;;;;;;;;;;20.37;42.17;100160.69;104013;1300;61438;-82
2024/03/12 11:58:44;;;;;;;;;;;;;;;20.39;42.37;100157.65;104145;1300;74378;-83
2024/03/12 12:01:10;;;;;;;;;;;;;;;20.43;42.60;100163.41;104241;1300;61215;-81
2024/03/12 12:03:36;;;;;;;;;;;;;;;20.44;42.66;100162.30;104742;1299;60374;-81
2024/03/12 12:06:02;;;;;;;;;;;;;;;20.40;42.68;100155.48;104608;1300;61005;-80
2024/03/12 12:08:29;;;;;;;;;;;;;;;20.36;42.73;100151.69;104568;1300;61436;-81
2024/03/12 12:13:36;;;;;;;;;;;;;;;20.27;42.78;100157.86;104712;1295;61348;-81
2024/03/12 12:16:04;;;;;;;;;;;;;;;20.24;42.74;100161.17;104020;1301;72404;-80
2024/03/12 12:18:30;;;;;;;;;;;;;;;20.23;42.50;100161.71;103598;1300;74235;-80
2024/03/12 12:20:58;;;;;;;;;;;;;;;20.25;42.72;100154.12;103721;1296;61379;-80
2024/03/12 12:23:25;;;;;;;;;;;;;;;20.27;42.64;100147.14;103776;1295;61309;-80
2024/03/12 12:25:53;;;;;;;;;;;;;;;20.31;42.67;100145.63;103637;1297;72985;-80
2024/03/12 12:28:20;;;;;;;;;;;;;;;20.34;42.60;100150.41;103573;1296;74244;-84
2024/03/12 12:30:46;;;;;;;;;;;;;;;20.37;42.61;100151.59;103476;1296;61360;-80
2024/03/12 12:33:16;;;;;;;;;;;;;;;20.40;42.59;100151.83;105531;1295;58870;-82
2024/03/12 12:35:42;;;;;;;;;;;;;;;20.44;42.64;100154.80;105569;1297;72327;-80
2024/03/12 12:38:09;;;;;;;;;;;;;;;20.47;42.74;100148.48;105551;1298;59274;-80